Time;durP1;ratioP1;P1;durP2;ratioP2;P2;SDS_P1;SDS_P2;PMS_P1;PMS_P2;Temp;Humidity;BMP_temperature;BMP_pressure;BME280_temperature;BME280_humidity;BME280_pressure;Samples;Min_cycle;Max_cycle;Signal;HPM_P1;HPM_P2
2024/02/03 00:03:18;;;;;;;18.90;7.50;;;;;;;;;;103523;1289;545405;-70
2024/02/03 00:06:56;;;;;;;19.70;7.60;;;;;;;;;;103567;1292;544929;-70
2024/02/03 00:10:29;;;;;;;15.40;7.50;;;;;;;;;;103727;1292;544698;-70
2024/02/03 00:14:10;;;;;;;13.00;5.90;;;;;;;;;;103790;1290;544778;-70
2024/02/03 00:17:48;;;;;;;12.60;6.50;;;;;;;;;;103576;1289;544939;-69
2024/02/03 00:21:26;;;;;;;11.90;6.20;;;;;;;;;;103696;1295;545259;-69
2024/02/03 00:25:03;;;;;;;19.10;9.30;;;;;;;;;;103537;1293;545106;-72
2024/02/03 00:28:37;;;;;;;17.50;7.90;;;;;;;;;;103508;1290;544721;-72
2024/02/03 00:32:18;;;;;;;12.20;6.50;;;;;;;;;;104546;1282;545412;-72
2024/02/03 00:35:56;;;;;;;13.50;6.40;;;;;;;;;;104049;1286;544872;-72
2024/02/03 00:39:32;;;;;;;13.00;6.30;;;;;;;;;;103641;1292;545780;-69
2024/02/03 00:43:14;;;;;;;13.40;6.20;;;;;;;;;;103611;1292;544865;-71
2024/02/03 00:47:07;;;;;;;12.30;6.50;;;;;;;;;;103400;1294;547929;-69
2024/02/03 00:50:25;;;;;;;11.50;5.30;;;;;;;;;;103567;1291;545013;-68
2024/02/03 00:54:03;;;;;;;11.60;5.40;;;;;;;;;;103574;1289;544785;-69
2024/02/03 00:57:40;;;;;;;11.30;5.60;;;;;;;;;;103651;1291;545000;-70
2024/02/03 01:01:18;;;;;;;11.10;5.20;;;;;;;;;;103767;1292;545592;-73
2024/02/03 01:04:55;;;;;;;11.70;4.80;;;;;;;;;;103696;1292;544943;-73
2024/02/03 01:08:32;;;;;;;10.30;4.70;;;;;;;;;;103823;1289;545311;-69
2024/02/03 01:12:06;;;;;;;10.70;5.00;;;;;;;;;;103594;1289;545040;-71
2024/02/03 01:15:47;;;;;;;9.00;4.40;;;;;;;;;;103657;1289;544761;-71
2024/02/03 01:19:25;;;;;;;10.00;4.60;;;;;;;;;;103572;1292;545921;-71
2024/02/03 01:23:03;;;;;;;10.70;4.80;;;;;;;;;;103643;1295;545651;-72
2024/02/03 01:26:41;;;;;;;9.70;4.40;;;;;;;;;;103544;1290;545176;-72
2024/02/03 01:30:17;;;;;;;9.80;4.80;;;;;;;;;;103667;1292;544801;-72
2024/02/03 01:33:56;;;;;;;10.10;4.40;;;;;;;;;;103624;1289;545035;-70
2024/02/03 01:37:32;;;;;;;10.00;4.90;;;;;;;;;;103737;1292;545045;-71
2024/02/03 01:41:10;;;;;;;11.10;4.90;;;;;;;;;;103769;1288;545411;-69
2024/02/03 01:44:47;;;;;;;9.20;4.40;;;;;;;;;;103738;1289;545227;-71
2024/02/03 01:48:25;;;;;;;8.80;4.40;;;;;;;;;;103625;1291;545032;-71
2024/02/03 01:52:04;;;;;;;9.20;4.70;;;;;;;;;;103660;1289;544867;-71
2024/02/03 01:55:37;;;;;;;10.40;4.60;;;;;;;;;;103776;1289;545482;-72
2024/02/03 01:59:17;;;;;;;8.40;4.30;;;;;;;;;;103722;1289;545986;-70
2024/02/03 02:02:56;;;;;;;9.70;4.10;;;;;;;;;;103425;1295;545396;-73
2024/02/03 02:06:32;;;;;;;9.60;4.50;;;;;;;;;;104695;1286;545007;-69
2024/02/03 02:10:10;;;;;;;10.60;4.60;;;;;;;;;;103731;1294;545823;-69
2024/02/03 02:13:47;;;;;;;10.40;3.90;;;;;;;;;;103700;1292;544701;-70
2024/02/03 02:17:27;;;;;;;8.50;4.00;;;;;;;;;;103539;1290;545345;-69
2024/02/03 02:21:21;;;;;;;8.10;4.10;;;;;;;;;;103631;1294;548156;-70
2024/02/03 02:24:40;;;;;;;7.50;3.80;;;;;;;;;;103721;1292;545063;-72
2024/02/03 02:28:17;;;;;;;8.70;4.00;;;;;;;;;;103748;1289;544734;-72
2024/02/03 02:31:55;;;;;;;8.90;4.50;;;;;;;;;;103337;1294;545161;-72
2024/02/03 02:35:32;;;;;;;8.20;3.70;;;;;;;;;;103645;1289;545228;-72
2024/02/03 02:39:09;;;;;;;8.10;3.80;;;;;;;;;;103580;1289;545443;-70
2024/02/03 02:42:47;;;;;;;7.90;3.80;;;;;;;;;;103768;1288;546178;-72
2024/02/03 02:46:27;;;;;;;7.70;3.60;;;;;;;;;;103682;1289;545450;-70
2024/02/03 02:50:01;;;;;;;8.30;3.30;;;;;;;;;;103651;1292;545274;-71
2024/02/03 02:53:39;;;;;;;8.70;3.80;;;;;;;;;;103715;1295;545682;-71
2024/02/03 02:57:16;;;;;;;7.40;3.30;;;;;;;;;;104609;1279;545353;-72
2024/02/03 03:00:54;;;;;;;6.00;2.90;;;;;;;;;;103602;1292;545595;-69
2024/02/03 03:04:32;;;;;;;7.70;3.20;;;;;;;;;;103692;1289;545114;-70
2024/02/03 03:08:09;;;;;;;6.20;3.00;;;;;;;;;;103648;1291;544975;-71
2024/02/03 03:11:46;;;;;;;7.50;3.10;;;;;;;;;;103706;1292;545495;-73
2024/02/03 03:15:24;;;;;;;8.80;4.00;;;;;;;;;;103529;1292;544736;-72
2024/02/03 03:19:01;;;;;;;7.50;3.60;;;;;;;;;;103760;1292;544812;-69
2024/02/03 03:22:39;;;;;;;7.50;3.70;;;;;;;;;;103558;1293;544779;-71
2024/02/03 03:26:17;;;;;;;8.80;4.10;;;;;;;;;;103775;1290;545771;-71
2024/02/03 03:29:54;;;;;;;7.90;3.80;;;;;;;;;;103588;1292;545546;-69
2024/02/03 03:33:27;;;;;;;7.70;3.50;;;;;;;;;;103723;1292;544864;-72
2024/02/03 03:37:09;;;;;;;8.70;3.80;;;;;;;;;;103612;1292;544830;-73
2024/02/03 03:40:47;;;;;;;8.10;3.80;;;;;;;;;;103810;1289;545470;-71
2024/02/03 03:44:23;;;;;;;8.30;4.10;;;;;;;;;;103664;1292;544739;-69
2024/02/03 03:48:01;;;;;;;9.00;4.40;;;;;;;;;;103946;1289;545060;-70
2024/02/03 03:51:39;;;;;;;8.50;4.50;;;;;;;;;;103530;1292;544853;-71
2024/02/03 03:55:16;;;;;;;9.40;4.60;;;;;;;;;;103665;1289;545055;-69
2024/02/03 03:58:53;;;;;;;8.80;4.60;;;;;;;;;;103404;1291;545484;-69
2024/02/03 04:02:30;;;;;;;8.30;4.00;;;;;;;;;;103718;1289;545090;-72
2024/02/03 04:06:09;;;;;;;8.40;4.30;;;;;;;;;;103649;1289;545683;-72
2024/02/03 04:09:48;;;;;;;9.10;4.90;;;;;;;;;;103702;1289;544969;-72
2024/02/03 04:13:23;;;;;;;8.20;4.60;;;;;;;;;;103675;1288;545510;-72
2024/02/03 04:17:01;;;;;;;8.40;4.40;;;;;;;;;;103769;1289;544903;-72
2024/02/03 04:20:39;;;;;;;9.10;4.50;;;;;;;;;;104003;1288;545918;-70
2024/02/03 04:24:12;;;;;;;9.20;4.30;;;;;;;;;;103750;1288;545249;-72
2024/02/03 04:27:53;;;;;;;8.90;4.60;;;;;;;;;;104024;1285;545062;-69
2024/02/03 04:31:31;;;;;;;8.40;4.00;;;;;;;;;;103596;1290;544976;-72
2024/02/03 04:35:08;;;;;;;8.00;4.00;;;;;;;;;;103518;1295;544839;-69
2024/02/03 04:38:45;;;;;;;9.00;4.40;;;;;;;;;;103546;1295;545156;-72
2024/02/03 04:42:23;;;;;;;7.80;4.00;;;;;;;;;;103542;1291;546031;-68
2024/02/03 04:46:01;;;;;;;8.40;4.00;;;;;;;;;;103775;1295;545063;-69
2024/02/03 04:49:38;;;;;;;7.60;4.10;;;;;;;;;;103751;1289;544922;-70
2024/02/03 04:53:15;;;;;;;8.40;4.20;;;;;;;;;;103536;1289;545504;-70
2024/02/03 04:56:53;;;;;;;7.50;3.80;;;;;;;;;;103410;1291;544785;-70
2024/02/03 05:00:30;;;;;;;8.00;4.30;;;;;;;;;;103740;1295;544745;-69
2024/02/03 05:04:08;;;;;;;8.70;4.00;;;;;;;;;;103581;1291;544731;-69
2024/02/03 05:07:48;;;;;;;7.20;3.60;;;;;;;;;;103790;1288;544984;-70
2024/02/03 05:11:23;;;;;;;7.50;3.80;;;;;;;;;;103694;1291;545444;-70
2024/02/03 05:15:00;;;;;;;7.80;3.90;;;;;;;;;;103840;1295;545081;-69
2024/02/03 05:18:37;;;;;;;8.90;4.00;;;;;;;;;;103711;1289;545557;-71
2024/02/03 05:22:15;;;;;;;7.80;4.10;;;;;;;;;;103541;1292;545368;-70
2024/02/03 05:25:52;;;;;;;9.00;4.00;;;;;;;;;;103645;1294;544999;-69
2024/02/03 05:29:30;;;;;;;8.20;4.20;;;;;;;;;;103585;1292;544876;-70
2024/02/03 05:33:07;;;;;;;7.90;4.10;;;;;;;;;;103414;1291;544892;-70
2024/02/03 05:36:44;;;;;;;8.50;4.50;;;;;;;;;;103618;1301;544831;-70
2024/02/03 05:40:22;;;;;;;8.10;4.20;;;;;;;;;;103633;1292;545661;-69
2024/02/03 05:44:00;;;;;;;8.40;4.60;;;;;;;;;;103624;1291;544968;-71
2024/02/03 05:47:37;;;;;;;8.50;4.40;;;;;;;;;;103575;1292;544851;-71
2024/02/03 05:51:15;;;;;;;8.50;4.40;;;;;;;;;;103958;1289;545055;-70
2024/02/03 05:54:52;;;;;;;9.30;4.90;;;;;;;;;;103509;1288;545436;-71
2024/02/03 05:58:30;;;;;;;9.50;5.10;;;;;;;;;;103547;1292;544715;-72
2024/02/03 06:02:07;;;;;;;8.60;4.90;;;;;;;;;;103568;1291;544744;-72
2024/02/03 06:05:44;;;;;;;9.60;4.70;;;;;;;;;;103747;1290;545861;-70
2024/02/03 06:09:25;;;;;;;8.90;5.10;;;;;;;;;;103795;1292;545034;-72
2024/02/03 06:12:59;;;;;;;8.90;4.90;;;;;;;;;;103696;1289;544916;-73
2024/02/03 06:16:37;;;;;;;8.80;5.40;;;;;;;;;;104352;1286;545905;-71
2024/02/03 06:20:15;;;;;;;9.80;5.60;;;;;;;;;;103771;1289;546335;-69
2024/02/03 06:23:52;;;;;;;9.60;5.70;;;;;;;;;;103678;1291;545381;-71
2024/02/03 06:27:29;;;;;;;9.10;5.20;;;;;;;;;;103672;1292;544846;-70
2024/02/03 06:31:07;;;;;;;9.40;5.20;;;;;;;;;;103331;1289;544815;-69
2024/02/03 06:34:44;;;;;;;9.30;5.50;;;;;;;;;;103775;1289;545480;-68
2024/02/03 06:38:21;;;;;;;10.00;4.70;;;;;;;;;;103726;1289;545032;-69
2024/02/03 06:42:00;;;;;;;8.40;4.60;;;;;;;;;;104658;1279;544976;-70
2024/02/03 06:45:37;;;;;;;8.20;4.90;;;;;;;;;;103671;1294;544968;-71
2024/02/03 06:49:14;;;;;;;7.40;4.20;;;;;;;;;;103682;1290;545228;-71
2024/02/03 06:52:52;;;;;;;9.80;4.40;;;;;;;;;;103787;1290;545112;-70
2024/02/03 06:56:29;;;;;;;7.70;4.20;;;;;;;;;;103810;1292;544711;-69
2024/02/03 07:00:10;;;;;;;8.30;3.80;;;;;;;;;;103940;1289;544830;-69
2024/02/03 07:03:44;;;;;;;7.80;4.30;;;;;;;;;;103715;1289;544799;-72
2024/02/03 07:07:22;;;;;;;8.80;4.70;;;;;;;;;;103671;1292;544777;-70
2024/02/03 07:10:55;;;;;;;8.60;4.60;;;;;;;;;;103798;1292;545486;-71
2024/02/03 07:14:37;;;;;;;7.70;4.10;;;;;;;;;;103553;1292;545055;-70
2024/02/03 07:18:14;;;;;;;8.50;4.00;;;;;;;;;;103742;1290;545612;-70
2024/02/03 07:21:52;;;;;;;6.20;2.90;;;;;;;;;;103689;1291;545626;-69
2024/02/03 07:25:29;;;;;;;7.00;3.20;;;;;;;;;;103633;1291;545616;-70
2024/02/03 07:29:07;;;;;;;6.70;2.90;;;;;;;;;;103704;1291;545979;-70
2024/02/03 07:32:43;;;;;;;7.80;3.70;;;;;;;;;;103694;1290;545511;-70
2024/02/03 07:36:22;;;;;;;8.00;3.40;;;;;;;;;;103685;1295;545011;-67
2024/02/03 07:39:59;;;;;;;7.00;3.50;;;;;;;;;;103739;1289;545040;-71
2024/02/03 07:43:36;;;;;;;7.90;3.90;;;;;;;;;;103738;1289;545540;-72
2024/02/03 07:47:14;;;;;;;10.40;4.40;;;;;;;;;;103511;1292;544920;-72
2024/02/03 07:50:51;;;;;;;18.80;6.90;;;;;;;;;;103484;1289;544992;-71
2024/02/03 07:54:29;;;;;;;10.20;3.80;;;;;;;;;;103608;1291;545013;-72
2024/02/03 07:58:06;;;;;;;16.80;5.30;;;;;;;;;;103483;1292;544944;-69
2024/02/03 08:01:43;;;;;;;13.10;3.90;;;;;;;;;;103786;1289;544907;-71
2024/02/03 08:05:21;;;;;;;26.40;10.00;;;;;;;;;;103639;1291;545165;-70
2024/02/03 08:09:00;;;;;;;13.20;4.90;;;;;;;;;;103867;1290;545048;-71
2024/02/03 08:12:36;;;;;;;8.10;3.20;;;;;;;;;;104319;1288;544908;-72
2024/02/03 08:16:09;;;;;;;6.90;2.70;;;;;;;;;;103652;1291;545398;-72
2024/02/03 08:19:51;;;;;;;8.30;3.50;;;;;;;;;;103616;1296;544725;-70
2024/02/03 08:23:29;;;;;;;5.00;1.50;;;;;;;;;;103716;1292;544960;-70
2024/02/03 08:27:06;;;;;;;5.70;2.00;;;;;;;;;;103713;1294;545928;-71
2024/02/03 08:30:44;;;;;;;4.90;2.00;;;;;;;;;;103863;1289;544931;-70
2024/02/03 08:34:21;;;;;;;3.70;1.50;;;;;;;;;;103456;1292;545102;-72
2024/02/03 08:37:58;;;;;;;4.60;1.60;;;;;;;;;;103603;1292;544991;-71
2024/02/03 08:41:35;;;;;;;2.50;1.20;;;;;;;;;;103662;1289;544719;-71
2024/02/03 08:45:13;;;;;;;3.50;1.60;;;;;;;;;;103867;1288;545557;-70
2024/02/03 08:48:51;;;;;;;4.30;1.70;;;;;;;;;;103805;1295;545061;-70
2024/02/03 08:52:28;;;;;;;4.00;1.70;;;;;;;;;;103497;1292;544831;-70
2024/02/03 08:56:06;;;;;;;4.30;1.30;;;;;;;;;;103379;1291;545234;-71
2024/02/03 08:59:43;;;;;;;4.40;1.40;;;;;;;;;;103833;1289;544841;-69
2024/02/03 09:03:21;;;;;;;4.10;1.50;;;;;;;;;;103418;1291;545469;-69
2024/02/03 09:06:57;;;;;;;3.00;1.40;;;;;;;;;;103738;1291;544982;-70
2024/02/03 09:10:41;;;;;;;11.30;3.60;;;;;;;;;;104112;1286;547898;-69
2024/02/03 09:14:13;;;;;;;14.20;4.60;;;;;;;;;;103712;1289;545526;-73
2024/02/03 09:17:50;;;;;;;10.70;3.90;;;;;;;;;;103583;1303;544926;-73
2024/02/03 09:21:27;;;;;;;14.50;4.60;;;;;;;;;;103793;1289;544850;-73
2024/02/03 09:25:05;;;;;;;12.90;4.50;;;;;;;;;;103726;1288;544902;-70
2024/02/03 09:28:42;;;;;;;11.30;4.40;;;;;;;;;;103760;1289;545239;-70
2024/02/03 09:32:23;;;;;;;7.70;2.10;;;;;;;;;;103679;1289;544969;-70
2024/02/03 09:35:57;;;;;;;7.60;2.60;;;;;;;;;;103756;1292;544981;-70
2024/02/03 09:39:36;;;;;;;4.90;1.90;;;;;;;;;;103682;1289;545016;-70
2024/02/03 09:43:13;;;;;;;5.20;2.00;;;;;;;;;;103645;1292;545632;-71
2024/02/03 09:46:50;;;;;;;7.90;2.70;;;;;;;;;;103721;1289;544877;-72
2024/02/03 09:50:28;;;;;;;4.70;2.00;;;;;;;;;;103760;1292;544910;-70
2024/02/03 09:54:05;;;;;;;5.10;2.00;;;;;;;;;;103765;1291;545423;-70
2024/02/03 09:58:02;;;;;;;5.00;2.20;;;;;;;;;;103408;1305;547812;-72
2024/02/03 10:01:16;;;;;;;5.20;2.30;;;;;;;;;;103927;1289;545611;-73
2024/02/03 10:04:55;;;;;;;5.00;2.20;;;;;;;;;;103703;1291;545463;-71
2024/02/03 10:08:35;;;;;;;5.10;2.10;;;;;;;;;;103560;1295;545186;-73
2024/02/03 10:12:19;;;;;;;5.50;2.10;;;;;;;;;;103778;1289;544779;-70
2024/02/03 10:15:58;;;;;;;5.30;2.20;;;;;;;;;;103682;1289;545596;-70
2024/02/03 10:19:27;;;;;;;4.60;1.70;;;;;;;;;;104418;1289;546345;-71
2024/02/03 10:23:06;;;;;;;5.30;2.10;;;;;;;;;;103657;1295;544854;-72
2024/02/03 10:26:42;;;;;;;6.00;2.10;;;;;;;;;;103877;1291;545160;-70
2024/02/03 10:30:20;;;;;;;5.30;2.00;;;;;;;;;;103740;1292;545404;-72
2024/02/03 10:33:57;;;;;;;5.00;1.70;;;;;;;;;;103943;1287;544832;-70
2024/02/03 10:37:36;;;;;;;5.60;1.80;;;;;;;;;;103564;1295;544973;-71
2024/02/03 10:41:12;;;;;;;4.80;2.00;;;;;;;;;;104396;1289;544870;-71
2024/02/03 10:44:52;;;;;;;4.30;1.70;;;;;;;;;;103847;1290;545069;-70
2024/02/03 10:48:30;;;;;;;4.30;1.60;;;;;;;;;;103872;1288;544803;-71
2024/02/03 10:52:05;;;;;;;4.60;1.60;;;;;;;;;;103661;1289;544952;-70
2024/02/03 10:55:44;;;;;;;3.80;1.50;;;;;;;;;;103710;1292;544790;-71
2024/02/03 10:59:23;;;;;;;9.70;4.60;;;;;;;;;;103608;1291;546148;-70
2024/02/03 11:03:00;;;;;;;11.00;4.70;;;;;;;;;;104646;1280;545078;-70
2024/02/03 11:06:35;;;;;;;23.80;9.20;;;;;;;;;;103720;1291;544739;-71
2024/02/03 11:10:13;;;;;;;26.70;12.90;;;;;;;;;;103746;1289;544756;-73
2024/02/03 11:13:49;;;;;;;11.50;5.70;;;;;;;;;;103532;1291;545617;-71
2024/02/03 11:17:30;;;;;;;8.60;3.80;;;;;;;;;;103680;1290;545484;-71
2024/02/03 11:21:07;;;;;;;6.00;2.70;;;;;;;;;;103899;1288;545672;-71
2024/02/03 11:24:43;;;;;;;6.30;2.20;;;;;;;;;;103811;1289;545155;-72
2024/02/03 11:28:20;;;;;;;7.20;2.70;;;;;;;;;;103574;1294;545242;-72
2024/02/03 11:32:10;;;;;;;4.20;1.50;;;;;;;;;;103814;1289;544771;-72
2024/02/03 11:35:35;;;;;;;5.80;1.80;;;;;;;;;;103697;1292;545076;-70
2024/02/03 11:39:12;;;;;;;5.70;2.20;;;;;;;;;;103782;1292;546017;-73
2024/02/03 11:42:46;;;;;;;7.70;2.70;;;;;;;;;;103523;1291;544817;-70
2024/02/03 11:46:26;;;;;;;7.20;2.40;;;;;;;;;;103725;1289;545022;-71
2024/02/03 11:50:04;;;;;;;9.20;3.50;;;;;;;;;;103610;1291;545387;-70
2024/02/03 11:53:42;;;;;;;10.20;3.20;;;;;;;;;;103993;1289;545947;-71
2024/02/03 11:57:19;;;;;;;7.00;2.60;;;;;;;;;;103882;1292;545410;-72
2024/02/03 12:01:09;;;;;;;4.90;1.80;;;;;;;;;;103814;1301;544932;-72
2024/02/03 12:04:34;;;;;;;3.20;1.30;;;;;;;;;;103836;1295;545521;-71
2024/02/03 12:08:11;;;;;;;3.50;1.40;;;;;;;;;;103604;1295;545920;-70
2024/02/03 12:11:49;;;;;;;4.70;1.40;;;;;;;;;;103817;1289;545279;-73
2024/02/03 12:15:22;;;;;;;4.10;1.80;;;;;;;;;;103822;1288;545600;-71
2024/02/03 12:19:04;;;;;;;3.90;1.70;;;;;;;;;;103621;1295;544956;-71
2024/02/03 12:22:41;;;;;;;3.70;1.40;;;;;;;;;;103731;1292;545884;-70
2024/02/03 12:26:19;;;;;;;3.50;1.40;;;;;;;;;;103569;1298;544865;-71
2024/02/03 12:29:56;;;;;;;3.10;1.20;;;;;;;;;;103761;1301;544851;-71
2024/02/03 12:33:33;;;;;;;4.20;1.30;;;;;;;;;;103763;1290;545087;-71
2024/02/03 12:37:10;;;;;;;3.10;1.40;;;;;;;;;;103485;1294;545351;-71
2024/02/03 12:40:49;;;;;;;3.50;1.30;;;;;;;;;;103706;1292;545226;-73
2024/02/03 12:44:25;;;;;;;3.70;1.50;;;;;;;;;;103925;1288;544794;-71
2024/02/03 12:48:04;;;;;;;4.70;1.80;;;;;;;;;;103623;1292;545517;-67
2024/02/03 12:51:40;;;;;;;4.40;1.90;;;;;;;;;;103806;1289;545052;-71
2024/02/03 12:55:18;;;;;;;3.00;1.00;;;;;;;;;;104139;1288;545672;-71
2024/02/03 12:58:55;;;;;;;3.70;1.30;;;;;;;;;;103778;1290;546783;-70
2024/02/03 13:02:33;;;;;;;3.90;1.60;;;;;;;;;;103616;1288;545428;-72
2024/02/03 13:06:06;;;;;;;3.50;1.30;;;;;;;;;;103782;1289;544970;-71
2024/02/03 13:09:48;;;;;;;3.00;1.40;;;;;;;;;;103747;1291;545126;-73
2024/02/03 13:13:25;;;;;;;4.80;2.10;;;;;;;;;;103623;1296;545606;-71
2024/02/03 13:17:04;;;;;;;4.40;1.60;;;;;;;;;;103685;1289;545326;-70
2024/02/03 13:20:40;;;;;;;12.50;4.50;;;;;;;;;;103843;1292;545790;-72
2024/02/03 13:24:24;;;;;;;18.50;7.00;;;;;;;;;;103720;1291;545680;-69
2024/02/03 13:27:55;;;;;;;25.80;10.80;;;;;;;;;;103724;1290;545318;-71
2024/02/03 13:31:33;;;;;;;6.60;2.20;;;;;;;;;;103840;1292;544782;-71
2024/02/03 13:35:10;;;;;;;18.30;8.70;;;;;;;;;;103669;1290;545908;-69
2024/02/03 13:38:48;;;;;;;12.00;5.20;;;;;;;;;;104209;1286;545001;-71
2024/02/03 13:42:25;;;;;;;10.40;4.60;;;;;;;;;;104063;1288;545029;-70
2024/02/03 13:46:03;;;;;;;10.50;5.40;;;;;;;;;;103744;1291;545000;-71
2024/02/03 13:50:00;;;;;;;4.80;2.40;;;;;;;;;;103530;1292;547999;-69
2024/02/03 13:53:18;;;;;;;5.90;2.70;;;;;;;;;;103906;1295;546106;-70
2024/02/03 13:56:55;;;;;;;4.90;2.40;;;;;;;;;;104761;1279;545375;-69
2024/02/03 14:00:34;;;;;;;7.90;3.00;;;;;;;;;;103655;1290;544926;-70
2024/02/03 14:04:10;;;;;;;2.90;1.50;;;;;;;;;;104597;1286;545466;-70
2024/02/03 14:07:48;;;;;;;3.60;1.70;;;;;;;;;;103791;1292;545387;-71
2024/02/03 14:11:24;;;;;;;4.20;1.70;;;;;;;;;;103772;1289;544961;-71
2024/02/03 14:15:05;;;;;;;6.20;3.10;;;;;;;;;;103683;1292;546234;-70
2024/02/03 14:18:39;;;;;;;5.50;3.00;;;;;;;;;;103742;1291;545659;-70
2024/02/03 14:22:17;;;;;;;6.20;2.50;;;;;;;;;;103849;1300;545625;-69
2024/02/03 14:25:55;;;;;;;5.20;1.90;;;;;;;;;;103772;1296;545464;-69
2024/02/03 14:29:32;;;;;;;4.40;1.70;;;;;;;;;;103695;1292;545066;-71
2024/02/03 14:33:09;;;;;;;4.80;1.90;;;;;;;;;;103546;1301;545171;-70
2024/02/03 14:36:43;;;;;;;8.10;2.90;;;;;;;;;;103898;1292;545666;-71
2024/02/03 14:40:25;;;;;;;5.40;1.90;;;;;;;;;;103770;1290;544920;-71
2024/02/03 14:44:02;;;;;;;5.60;1.60;;;;;;;;;;103783;1292;544857;-70
2024/02/03 14:47:39;;;;;;;4.60;1.60;;;;;;;;;;103654;1289;544814;-71
2024/02/03 14:51:17;;;;;;;6.00;2.20;;;;;;;;;;103719;1289;544836;-70
2024/02/03 14:54:50;;;;;;;5.10;1.80;;;;;;;;;;103771;1289;544708;-70
2024/02/03 14:58:32;;;;;;;5.90;2.50;;;;;;;;;;103724;1294;544874;-70
2024/02/03 15:02:09;;;;;;;8.20;4.40;;;;;;;;;;103691;1289;545683;-71
2024/02/03 15:05:47;;;;;;;9.00;5.60;;;;;;;;;;103674;1292;545034;-71
2024/02/03 15:09:24;;;;;;;9.10;6.20;;;;;;;;;;103844;1288;545480;-71
2024/02/03 15:13:02;;;;;;;5.40;2.60;;;;;;;;;;103739;1295;545151;-73
2024/02/03 15:16:39;;;;;;;9.30;3.70;;;;;;;;;;103710;1292;545137;-71
2024/02/03 15:20:17;;;;;;;5.00;2.10;;;;;;;;;;103839;1289;544933;-69
2024/02/03 15:23:54;;;;;;;4.30;2.00;;;;;;;;;;103810;1302;544748;-70
2024/02/03 15:27:31;;;;;;;6.00;2.60;;;;;;;;;;103772;1289;544595;-71
2024/02/03 15:31:09;;;;;;;5.00;2.30;;;;;;;;;;103842;1296;545166;-74
2024/02/03 15:34:47;;;;;;;7.90;3.50;;;;;;;;;;103706;1292;544935;-73
2024/02/03 15:38:24;;;;;;;22.70;14.40;;;;;;;;;;103916;1292;544954;-72
2024/02/03 15:42:02;;;;;;;5.10;2.30;;;;;;;;;;103679;1292;544990;-72
2024/02/03 15:45:39;;;;;;;5.20;2.20;;;;;;;;;;103749;1292;545132;-72
2024/02/03 15:49:16;;;;;;;5.50;2.30;;;;;;;;;;103804;1296;545294;-74
2024/02/03 15:52:54;;;;;;;6.40;2.60;;;;;;;;;;103770;1289;544879;-72
2024/02/03 15:56:31;;;;;;;9.20;4.30;;;;;;;;;;103694;1292;544730;-74
2024/02/03 16:00:09;;;;;;;9.10;3.70;;;;;;;;;;103750;1289;545438;-74
2024/02/03 16:03:48;;;;;;;12.60;6.20;;;;;;;;;;103605;1301;544989;-70
2024/02/03 16:07:24;;;;;;;8.50;3.50;;;;;;;;;;103544;1291;545062;-69
2024/02/03 16:11:02;;;;;;;7.80;3.20;;;;;;;;;;103725;1289;545827;-70
2024/02/03 16:14:38;;;;;;;9.10;3.80;;;;;;;;;;103710;1293;544900;-72
2024/02/03 16:18:16;;;;;;;8.80;3.30;;;;;;;;;;103802;1288;546570;-69
2024/02/03 16:21:53;;;;;;;7.40;2.80;;;;;;;;;;103737;1289;544769;-72
2024/02/03 16:25:32;;;;;;;6.90;2.70;;;;;;;;;;103760;1288;544965;-71
2024/02/03 16:29:09;;;;;;;5.20;2.00;;;;;;;;;;103769;1289;545107;-73
2024/02/03 16:32:46;;;;;;;8.80;4.00;;;;;;;;;;103785;1290;545180;-73
2024/02/03 16:36:23;;;;;;;20.00;12.40;;;;;;;;;;103768;1291;546513;-72
2024/02/03 16:40:01;;;;;;;20.00;9.80;;;;;;;;;;103725;1292;545014;-71
2024/02/03 16:43:38;;;;;;;27.20;15.10;;;;;;;;;;103783;1295;544748;-69
2024/02/03 16:47:16;;;;;;;14.70;7.80;;;;;;;;;;103777;1289;544779;-70
2024/02/03 16:50:53;;;;;;;14.90;6.90;;;;;;;;;;103689;1291;545125;-73
2024/02/03 16:54:27;;;;;;;25.60;12.00;;;;;;;;;;103763;1292;545046;-71
2024/02/03 16:58:08;;;;;;;26.60;13.70;;;;;;;;;;103723;1290;545057;-71
2024/02/03 17:01:47;;;;;;;18.60;9.20;;;;;;;;;;103814;1289;544962;-71
2024/02/03 17:05:19;;;;;;;10.50;5.00;;;;;;;;;;103855;1302;545439;-69
2024/02/03 17:09:00;;;;;;;19.40;10.20;;;;;;;;;;103707;1289;545232;-70
2024/02/03 17:12:37;;;;;;;25.10;12.60;;;;;;;;;;103823;1289;545038;-70
2024/02/03 17:16:19;;;;;;;19.90;12.10;;;;;;;;;;103440;1295;545389;-69
2024/02/03 17:19:53;;;;;;;12.10;7.40;;;;;;;;;;103712;1290;545318;-71
2024/02/03 17:23:30;;;;;;;22.80;12.60;;;;;;;;;;103574;1289;545082;-70
2024/02/03 17:27:07;;;;;;;19.40;11.60;;;;;;;;;;103774;1289;545336;-71
2024/02/03 17:30:41;;;;;;;9.20;4.70;;;;;;;;;;103586;1291;545271;-70
2024/02/03 17:34:22;;;;;;;10.50;5.10;;;;;;;;;;103717;1291;544780;-71
2024/02/03 17:38:00;;;;;;;10.50;5.10;;;;;;;;;;103693;1292;544990;-70
2024/02/03 17:41:37;;;;;;;16.90;9.40;;;;;;;;;;104221;1286;545185;-71
2024/02/03 17:45:15;;;;;;;13.00;7.40;;;;;;;;;;103785;1295;545797;-70
2024/02/03 17:48:52;;;;;;;7.60;3.80;;;;;;;;;;103752;1290;545042;-70
2024/02/03 17:52:30;;;;;;;43.10;16.20;;;;;;;;;;103553;1290;545603;-71
2024/02/03 17:56:07;;;;;;;7.00;3.10;;;;;;;;;;103713;1292;544976;-70
2024/02/03 17:59:45;;;;;;;7.40;3.40;;;;;;;;;;103695;1294;545849;-67
2024/02/03 18:03:24;;;;;;;6.70;3.10;;;;;;;;;;103780;1289;545509;-70
2024/02/03 18:07:00;;;;;;;10.80;6.80;;;;;;;;;;103703;1289;544673;-71
2024/02/03 18:10:37;;;;;;;14.50;7.30;;;;;;;;;;103807;1289;545143;-73
2024/02/03 18:14:15;;;;;;;14.50;10.70;;;;;;;;;;103647;1292;544998;-71
2024/02/03 18:17:52;;;;;;;9.90;4.70;;;;;;;;;;103729;1289;545719;-73
2024/02/03 18:21:30;;;;;;;8.50;4.60;;;;;;;;;;103770;1290;545946;-70
2024/02/03 18:25:07;;;;;;;8.40;5.00;;;;;;;;;;103650;1294;545448;-72
2024/02/03 18:28:41;;;;;;;9.10;4.30;;;;;;;;;;103693;1295;545728;-69
2024/02/03 18:32:22;;;;;;;8.70;3.70;;;;;;;;;;103932;1289;545410;-70
2024/02/03 18:36:00;;;;;;;15.00;6.40;;;;;;;;;;103720;1292;544699;-69
2024/02/03 18:39:37;;;;;;;6.30;2.70;;;;;;;;;;103665;1292;544981;-69
2024/02/03 18:43:11;;;;;;;8.10;2.60;;;;;;;;;;103840;1291;544980;-73
2024/02/03 18:46:52;;;;;;;9.20;3.30;;;;;;;;;;103828;1290;545506;-70
2024/02/03 18:50:26;;;;;;;8.30;3.30;;;;;;;;;;104079;1288;545513;-72
2024/02/03 18:54:07;;;;;;;20.00;6.40;;;;;;;;;;103693;1289;544888;-71
2024/02/03 18:57:44;;;;;;;12.80;4.40;;;;;;;;;;103669;1289;544608;-72
2024/02/03 19:01:22;;;;;;;13.70;5.10;;;;;;;;;;103762;1291;545564;-71
2024/02/03 19:04:59;;;;;;;6.70;2.70;;;;;;;;;;103870;1288;545761;-71
2024/02/03 19:08:36;;;;;;;9.30;4.00;;;;;;;;;;103696;1289;545118;-71
2024/02/03 19:12:16;;;;;;;8.40;3.50;;;;;;;;;;103690;1290;544983;-70
2024/02/03 19:15:51;;;;;;;7.60;3.80;;;;;;;;;;103770;1292;544804;-71
2024/02/03 19:19:31;;;;;;;7.90;3.30;;;;;;;;;;103783;1289;544995;-71
2024/02/03 19:23:06;;;;;;;5.10;2.00;;;;;;;;;;103727;1288;545522;-70
2024/02/03 19:26:44;;;;;;;7.30;2.80;;;;;;;;;;103716;1291;545404;-70
2024/02/03 19:30:21;;;;;;;10.70;4.10;;;;;;;;;;103683;1291;544775;-73
2024/02/03 19:33:55;;;;;;;13.00;5.90;;;;;;;;;;103789;1288;544767;-70
2024/02/03 19:37:36;;;;;;;14.60;7.20;;;;;;;;;;103721;1290;545126;-71
2024/02/03 19:41:16;;;;;;;12.50;6.20;;;;;;;;;;103715;1291;545159;-71
2024/02/03 19:44:51;;;;;;;10.90;4.70;;;;;;;;;;103679;1300;545084;-73
2024/02/03 19:48:28;;;;;;;11.50;5.70;;;;;;;;;;103708;1292;545046;-70
2024/02/03 19:52:06;;;;;;;14.00;7.00;;;;;;;;;;103778;1295;545422;-70
2024/02/03 19:55:44;;;;;;;12.60;6.30;;;;;;;;;;103493;1292;545750;-69
2024/02/03 19:59:21;;;;;;;14.30;9.50;;;;;;;;;;103706;1295;544838;-69
2024/02/03 20:02:59;;;;;;;9.90;5.10;;;;;;;;;;103780;1291;544756;-72
2024/02/03 20:06:55;;;;;;;9.00;5.10;;;;;;;;;;103671;1293;547973;-70
2024/02/03 20:10:15;;;;;;;10.80;6.00;;;;;;;;;;103780;1291;544746;-70
2024/02/03 20:13:51;;;;;;;6.60;3.20;;;;;;;;;;103703;1291;546054;-71
2024/02/03 20:17:25;;;;;;;6.60;3.30;;;;;;;;;;103774;1292;545493;-69
2024/02/03 20:21:06;;;;;;;5.40;2.20;;;;;;;;;;103604;1289;544989;-73
2024/02/03 20:24:39;;;;;;;7.00;3.10;;;;;;;;;;103950;1289;544805;-71
2024/02/03 20:28:21;;;;;;;6.50;2.60;;;;;;;;;;103876;1288;544961;-70
2024/02/03 20:31:58;;;;;;;7.00;3.00;;;;;;;;;;103763;1289;544988;-72
2024/02/03 20:35:35;;;;;;;7.30;3.20;;;;;;;;;;103722;1295;544724;-72
2024/02/03 20:39:14;;;;;;;15.30;7.20;;;;;;;;;;103793;1296;544897;-71
2024/02/03 20:42:50;;;;;;;26.90;13.90;;;;;;;;;;103502;1295;544803;-71
2024/02/03 20:46:28;;;;;;;14.60;6.70;;;;;;;;;;103701;1295;545585;-71
2024/02/03 20:50:05;;;;;;;9.20;3.90;;;;;;;;;;103699;1289;544768;-69
2024/02/03 20:53:43;;;;;;;12.80;6.10;;;;;;;;;;103678;1295;545271;-71
2024/02/03 20:57:21;;;;;;;11.20;6.00;;;;;;;;;;103820;1289;544869;-71
2024/02/03 21:00:58;;;;;;;13.00;7.00;;;;;;;;;;103887;1288;544761;-70